Charlemagne, Canada
Current Conditions -  °F | °C
As of 8:22 PM on Saturday 25 Oct 2014 (Local Time) from CYHU Reporting Station
Broken Clouds Broken Clouds  
Wind Chill: 52°   Ceiling: 2700
Heat Index: 52°   Visibility: 9mi
Dew Point: 48°   Wind: 10mph
Humidity: 88%   Direction: 210°SSW
Pressure: 29.43"   Gusts: NA
Location:  45.72°N, 73.48°W
Report Text: CYHU 260022Z AUTO 21009KT 9SM SCT017 BKN027 BKN075 11/09 A2943 RMK SLP966 DENSITY ALT 100FT
Loading
Personal Weather Stations






























Interactive Weather Map
Tropical Storm Tracking
New forecast layout! Learn more

10-Day Weather Forecast

Advertisements
Track Severe Weather on mobile